Time;durP1;ratioP1;P1;durP2;ratioP2;P2;SDS_P1;SDS_P2;PMS_P1;PMS_P2;Temp;Humidity;BMP_temperature;BMP_pressure;BME280_temperature;BME280_humidity;BME280_pressure;Samples;Min_cycle;Max_cycle;Signal;HPM_P1;HPM_P2
2023/09/16 00:00:55;;;;;;;8.77;3.57;;;12.50;99.90;;;;;;4787199;30;20227;-75
2023/09/16 00:03:23;;;;;;;8.20;3.40;;;12.30;99.90;;;;;;4786814;30;20223;-75
2023/09/16 00:05:50;;;;;;;6.63;2.80;;;12.30;99.90;;;;;;4787003;30;20260;-76
2023/09/16 00:08:17;;;;;;;8.90;3.03;;;12.30;99.90;;;;;;4787756;30;20204;-75
2023/09/16 00:10:47;;;;;;;6.37;3.00;;;12.30;99.90;;;;;;4787764;30;20333;-76
2023/09/16 00:13:15;;;;;;;6.73;2.90;;;12.30;99.90;;;;;;4786930;30;20730;-76
2023/09/16 00:15:48;;;;;;;7.07;3.37;;;12.20;99.90;;;;;;4786420;29;20301;-77
2023/09/16 00:18:16;;;;;;;5.60;3.10;;;12.20;99.90;;;;;;4787517;30;20214;-75
2023/09/16 00:20:45;;;;;;;6.63;2.77;;;12.20;99.90;;;;;;4787038;30;20232;-75
2023/09/16 00:23:14;;;;;;;5.27;2.73;;;12.10;99.90;;;;;;4786831;30;20204;-76
2023/09/16 00:25:42;;;;;;;5.73;3.00;;;12.10;99.90;;;;;;4787167;30;20261;-75
2023/09/16 00:28:09;;;;;;;7.80;3.13;;;12.10;99.90;;;;;;4786950;30;20293;-76
2023/09/16 00:30:39;;;;;;;7.37;3.23;;;12.00;99.90;;;;;;4786902;30;20204;-76
2023/09/16 00:33:08;;;;;;;8.13;3.37;;;12.00;99.90;;;;;;4787023;30;20223;-79
2023/09/16 00:35:35;;;;;;;6.03;3.00;;;12.00;99.90;;;;;;4787805;30;20277;-75
2023/09/16 00:38:03;;;;;;;5.83;3.10;;;11.90;99.90;;;;;;4787042;30;20541;-76
2023/09/16 00:40:31;;;;;;;9.60;3.30;;;11.90;99.90;;;;;;4786033;30;20274;-76
2023/09/16 00:42:58;;;;;;;8.47;2.93;;;11.90;99.90;;;;;;4787063;30;20204;-76
2023/09/16 00:45:26;;;;;;;7.00;3.20;;;11.90;99.90;;;;;;4787203;30;20231;-76
2023/09/16 00:47:54;;;;;;;5.10;2.77;;;11.80;99.90;;;;;;4786090;30;20208;-76
2023/09/16 00:50:22;;;;;;;5.17;3.10;;;11.80;99.90;;;;;;4787141;30;20245;-76
2023/09/16 00:52:56;;;;;;;5.67;2.80;;;11.80;99.90;;;;;;4786490;30;20376;-76
2023/09/16 00:55:26;;;;;;;7.07;3.10;;;11.90;99.90;;;;;;4786697;30;20204;-76
2023/09/16 00:57:54;;;;;;;8.17;3.20;;;11.80;99.90;;;;;;4786578;30;20657;-78
2023/09/16 01:00:26;;;;;;;5.37;3.00;;;11.70;99.90;;;;;;4785643;30;20271;-79
2023/09/16 01:02:55;;;;;;;9.00;3.50;;;11.70;99.90;;;;;;4786993;30;20204;-75
2023/09/16 01:05:23;;;;;;;7.67;3.17;;;11.70;99.90;;;;;;4787358;30;20204;-76
2023/09/16 01:07:52;;;;;;;6.70;3.03;;;11.60;99.90;;;;;;4786742;30;20200;-74
2023/09/16 01:10:22;;;;;;;7.90;3.07;;;11.60;99.90;;;;;;4786095;30;20551;-79
2023/09/16 01:12:54;;;;;;;14.33;4.13;;;11.50;99.90;;;;;;4785781;30;20204;-75
2023/09/16 01:15:27;;;;;;;5.83;3.10;;;11.50;99.90;;;;;;4786227;30;20198;-74
2023/09/16 01:18:02;;;;;;;5.83;2.97;;;11.50;99.90;;;;;;4785655;30;20640;-77
2023/09/16 01:20:30;;;;;;;5.13;2.80;;;11.40;99.90;;;;;;4785589;30;20626;-76
2023/09/16 01:22:59;;;;;;;7.80;3.30;;;11.40;99.90;;;;;;4785945;30;20211;-76
2023/09/16 01:25:30;;;;;;;4.27;2.90;;;11.40;99.90;;;;;;4787137;30;20255;-76
2023/09/16 01:27:58;;;;;;;7.73;3.00;;;11.50;99.90;;;;;;4785248;29;20200;-76
2023/09/16 01:30:28;;;;;;;8.23;3.43;;;11.40;99.90;;;;;;4785694;30;20262;-76
2023/09/16 01:33:13;;;;;;;5.43;3.03;;;11.40;99.90;;;;;;4786643;30;20204;-76
2023/09/16 01:35:45;;;;;;;7.23;3.03;;;11.30;99.90;;;;;;4785863;30;20224;-76
2023/09/16 01:38:14;;;;;;;6.00;2.73;;;11.30;99.90;;;;;;4786201;30;20208;-75
2023/09/16 01:40:44;;;;;;;7.20;3.00;;;11.30;99.90;;;;;;4786018;30;20223;-75
2023/09/16 01:43:11;;;;;;;9.10;2.90;;;11.30;99.90;;;;;;4786419;30;20204;-75
2023/09/16 01:45:45;;;;;;;6.03;3.03;;;11.20;99.90;;;;;;4786124;30;20232;-78
2023/09/16 01:48:16;;;;;;;7.70;2.90;;;11.20;99.90;;;;;;4786181;30;20609;-78
2023/09/16 01:50:47;;;;;;;10.40;3.37;;;11.20;99.90;;;;;;4786608;30;20216;-76
2023/09/16 01:53:16;;;;;;;5.47;3.00;;;11.10;99.90;;;;;;4786564;30;20208;-76
2023/09/16 01:55:43;;;;;;;6.47;3.10;;;11.10;99.90;;;;;;4786794;30;20657;-76
2023/09/16 01:58:11;;;;;;;6.37;3.10;;;11.10;99.90;;;;;;4786015;30;20208;-75
2023/09/16 02:00:39;;;;;;;6.20;3.37;;;11.10;99.90;;;;;;4785997;30;20285;-75
2023/09/16 02:03:06;;;;;;;7.60;3.40;;;11.00;99.90;;;;;;4786665;30;20204;-75
2023/09/16 02:05:34;;;;;;;5.37;2.93;;;11.10;99.90;;;;;;4785854;30;20216;-76
2023/09/16 02:08:02;;;;;;;9.90;3.17;;;11.00;99.90;;;;;;4785690;30;20199;-76
2023/09/16 02:10:30;;;;;;;7.93;3.00;;;11.00;99.90;;;;;;4785218;30;20326;-76
2023/09/16 02:12:57;;;;;;;5.40;3.13;;;11.00;99.90;;;;;;4786270;29;20237;-76
2023/09/16 02:15:25;;;;;;;5.27;2.70;;;11.00;99.90;;;;;;4786857;30;20201;-76
2023/09/16 02:17:54;;;;;;;6.40;2.90;;;10.90;99.90;;;;;;4785252;30;20219;-76
2023/09/16 02:20:22;;;;;;;7.00;3.40;;;10.90;99.90;;;;;;4785691;29;20220;-76
2023/09/16 02:22:50;;;;;;;7.93;3.47;;;10.90;99.90;;;;;;4786107;30;20271;-75
2023/09/16 02:25:17;;;;;;;6.13;2.90;;;10.90;99.90;;;;;;4786501;30;20269;-76
2023/09/16 02:27:45;;;;;;;7.63;2.97;;;10.80;99.90;;;;;;4785312;30;20253;-75
2023/09/16 02:30:15;;;;;;;6.30;2.80;;;10.80;99.90;;;;;;4785695;30;20262;-76
2023/09/16 02:32:43;;;;;;;6.40;3.23;;;10.80;99.90;;;;;;4786412;30;20211;-79
2023/09/16 02:35:10;;;;;;;8.43;3.50;;;10.80;99.90;;;;;;4785278;30;20204;-76
2023/09/16 02:37:38;;;;;;;5.53;2.90;;;10.80;99.90;;;;;;4785754;29;20192;-77
2023/09/16 02:40:07;;;;;;;8.53;3.43;;;10.80;99.90;;;;;;4789013;29;20188;-75
2023/09/16 02:42:38;;;;;;;5.13;2.80;;;10.70;99.90;;;;;;4788553;30;20719;-76
2023/09/16 02:45:06;;;;;;;8.13;3.37;;;10.70;99.90;;;;;;4789727;30;20205;-79
2023/09/16 02:47:35;;;;;;;7.00;3.10;;;10.70;99.90;;;;;;4788490;30;20201;-76
2023/09/16 02:50:03;;;;;;;6.80;3.13;;;10.70;99.90;;;;;;4788553;30;20287;-76
2023/09/16 02:52:31;;;;;;;8.03;3.50;;;10.70;99.90;;;;;;4788970;30;20206;-76
2023/09/16 02:54:58;;;;;;;5.87;3.33;;;10.60;99.90;;;;;;4788680;30;20208;-76
2023/09/16 02:57:26;;;;;;;6.27;2.97;;;10.60;99.90;;;;;;4789089;30;20560;-76
2023/09/16 02:59:54;;;;;;;7.23;3.33;;;10.60;99.90;;;;;;4788883;30;20212;-76
2023/09/16 03:02:21;;;;;;;5.63;3.30;;;10.60;99.90;;;;;;4788095;30;20665;-76
2023/09/16 03:04:50;;;;;;;9.73;3.63;;;10.70;99.90;;;;;;4788510;30;20203;-77
2023/09/16 03:07:17;;;;;;;6.33;3.27;;;10.60;99.90;;;;;;4787991;30;20228;-76
2023/09/16 03:09:45;;;;;;;6.37;3.30;;;10.60;99.90;;;;;;4788794;30;20240;-75
2023/09/16 03:12:12;;;;;;;7.77;3.27;;;10.60;99.90;;;;;;4788142;30;20609;-76
2023/09/16 03:14:40;;;;;;;7.10;3.13;;;10.50;99.90;;;;;;4787881;30;20204;-76
2023/09/16 03:17:07;;;;;;;6.33;3.20;;;10.50;99.90;;;;;;4788415;30;20261;-77
2023/09/16 03:19:35;;;;;;;6.97;3.40;;;10.50;99.90;;;;;;4788118;30;20211;-76
2023/09/16 03:22:03;;;;;;;8.33;3.10;;;10.50;99.90;;;;;;4788224;30;20314;-77
2023/09/16 03:24:31;;;;;;;8.20;3.60;;;10.50;99.90;;;;;;4788287;30;20208;-77
2023/09/16 03:26:58;;;;;;;9.67;3.83;;;10.40;99.90;;;;;;4788730;30;20208;-76
2023/09/16 03:29:26;;;;;;;6.97;3.10;;;10.50;99.90;;;;;;4789944;30;20228;-76
2023/09/16 03:31:54;;;;;;;5.13;3.20;;;10.40;99.90;;;;;;4787761;30;20204;-76
2023/09/16 03:34:21;;;;;;;7.83;3.10;;;10.40;99.90;;;;;;4788909;30;20283;-77
2023/09/16 03:36:48;;;;;;;6.57;3.30;;;10.30;99.90;;;;;;4788197;30;20224;-78
2023/09/16 03:39:16;;;;;;;6.73;3.20;;;10.40;99.90;;;;;;4788560;30;20235;-77
2023/09/16 03:41:44;;;;;;;6.83;3.30;;;10.30;99.90;;;;;;4787953;30;20665;-78
2023/09/16 03:44:12;;;;;;;8.57;3.70;;;10.30;99.90;;;;;;4787935;30;20239;-77
2023/09/16 03:46:39;;;;;;;8.20;3.53;;;10.40;99.90;;;;;;4787120;30;20220;-75
2023/09/16 03:49:10;;;;;;;4.70;3.10;;;10.20;99.90;;;;;;4787810;29;20208;-76
2023/09/16 03:51:38;;;;;;;6.07;3.10;;;10.40;99.90;;;;;;4788454;30;20235;-77
2023/09/16 03:54:06;;;;;;;6.33;3.83;;;10.20;99.90;;;;;;4788171;30;20204;-77
2023/09/16 03:56:34;;;;;;;5.13;3.40;;;10.20;99.90;;;;;;4787570;30;20613;-78
2023/09/16 03:59:04;;;;;;;6.07;3.40;;;10.20;99.90;;;;;;4788739;30;20208;-77
2023/09/16 04:01:32;;;;;;;6.30;3.53;;;10.20;99.90;;;;;;4788003;30;20710;-76
2023/09/16 04:04:00;;;;;;;5.23;3.47;;;10.30;99.90;;;;;;4787807;30;20269;-77
2023/09/16 04:06:27;;;;;;;9.53;3.37;;;10.30;99.90;;;;;;4787486;30;20720;-78
2023/09/16 04:08:55;;;;;;;6.00;3.23;;;10.20;99.90;;;;;;4787421;30;20212;-77
2023/09/16 04:11:22;;;;;;;7.23;3.70;;;10.20;99.90;;;;;;4787155;30;20284;-78
2023/09/16 04:13:50;;;;;;;9.27;4.07;;;10.20;99.90;;;;;;4787316;30;20205;-77
2023/09/16 04:16:18;;;;;;;9.27;3.60;;;10.30;99.90;;;;;;4787321;30;20222;-77
2023/09/16 04:18:46;;;;;;;10.20;3.90;;;10.20;99.90;;;;;;4786635;30;20201;-76
2023/09/16 04:21:13;;;;;;;7.97;3.80;;;10.20;99.90;;;;;;4786717;30;20326;-78
2023/09/16 04:23:41;;;;;;;10.30;4.00;;;10.30;99.90;;;;;;4786345;30;20703;-76
2023/09/16 04:26:12;;;;;;;6.73;3.73;;;10.20;99.90;;;;;;4787531;30;20227;-77
2023/09/16 04:28:40;;;;;;;6.47;3.37;;;10.20;99.90;;;;;;4786316;30;20273;-77
2023/09/16 04:31:09;;;;;;;8.27;3.47;;;10.20;99.90;;;;;;4787167;30;20620;-77
2023/09/16 04:33:38;;;;;;;7.13;4.10;;;10.20;99.90;;;;;;4785258;30;20669;-76
2023/09/16 04:36:05;;;;;;;12.40;4.40;;;10.20;99.90;;;;;;4787128;30;20227;-76
2023/09/16 04:38:33;;;;;;;8.63;3.67;;;10.20;99.90;;;;;;4786438;30;20563;-77
2023/09/16 04:41:01;;;;;;;6.60;3.57;;;10.20;99.90;;;;;;4786856;30;20232;-77
2023/09/16 04:43:29;;;;;;;5.80;3.73;;;10.30;99.90;;;;;;4787086;30;20204;-77
2023/09/16 04:45:56;;;;;;;6.50;3.60;;;10.30;99.90;;;;;;4786182;30;20335;-77
2023/09/16 04:48:24;;;;;;;7.57;4.07;;;10.40;99.90;;;;;;4787425;30;20262;-76
2023/09/16 04:50:52;;;;;;;6.70;3.80;;;10.40;99.90;;;;;;4786608;30;20235;-76
2023/09/16 04:53:20;;;;;;;10.70;4.43;;;10.40;99.90;;;;;;4786601;30;20196;-76
2023/09/16 04:55:47;;;;;;;6.83;3.87;;;10.40;99.90;;;;;;4786608;30;20724;-77
2023/09/16 04:58:16;;;;;;;10.57;3.87;;;10.40;99.90;;;;;;4785356;30;20216;-78
2023/09/16 05:00:48;;;;;;;6.77;3.80;;;10.40;99.90;;;;;;4770263;30;20214;-78
2023/09/16 05:03:19;;;;;;;5.97;3.70;;;10.50;99.90;;;;;;4786730;30;20261;-76
2023/09/16 05:05:52;;;;;;;6.90;3.73;;;10.50;99.90;;;;;;4785978;30;20282;-78
2023/09/16 05:08:20;;;;;;;7.00;3.47;;;10.50;99.90;;;;;;4786878;30;20261;-79
2023/09/16 05:10:57;;;;;;;6.33;3.73;;;10.60;99.90;;;;;;4785788;30;20696;-79
2023/09/16 05:13:25;;;;;;;7.17;3.97;;;10.70;99.90;;;;;;4786128;30;20668;-77
2023/09/16 05:15:52;;;;;;;10.03;3.90;;;10.60;99.90;;;;;;4786185;30;20220;-77
2023/09/16 05:18:21;;;;;;;6.03;3.60;;;10.70;99.90;;;;;;4786610;30;20204;-78
2023/09/16 05:20:51;;;;;;;10.07;4.33;;;10.80;99.90;;;;;;4786274;30;20692;-78
2023/09/16 05:23:19;;;;;;;9.13;4.30;;;10.70;99.90;;;;;;4786904;30;20224;-76
2023/09/16 05:25:48;;;;;;;9.50;3.83;;;10.80;99.90;;;;;;4786525;30;20539;-78
2023/09/16 05:28:18;;;;;;;8.00;3.90;;;10.80;99.90;;;;;;4786309;30;20660;-77
2023/09/16 05:30:46;;;;;;;7.27;3.83;;;10.90;99.90;;;;;;4787078;30;20292;-80
2023/09/16 05:33:14;;;;;;;7.43;3.90;;;11.00;99.90;;;;;;4786420;30;20196;-76
2023/09/16 05:35:45;;;;;;;5.87;3.57;;;11.00;99.90;;;;;;4786339;30;20773;-80
2023/09/16 05:38:14;;;;;;;9.07;4.23;;;11.20;99.90;;;;;;4784984;29;20204;-78
2023/09/16 05:40:41;;;;;;;9.17;3.40;;;11.20;99.90;;;;;;4786030;30;20621;-78
2023/09/16 05:43:09;;;;;;;8.97;3.60;;;11.20;99.90;;;;;;4786110;30;20204;-77
2023/09/16 05:45:37;;;;;;;8.17;4.07;;;11.30;99.90;;;;;;4785715;30;20196;-77
2023/09/16 05:48:05;;;;;;;6.17;3.67;;;11.40;99.90;;;;;;4785663;30;20211;-78
2023/09/16 05:50:33;;;;;;;9.73;3.83;;;11.40;99.90;;;;;;4786469;30;20231;-77
2023/09/16 05:53:03;;;;;;;14.43;4.50;;;11.40;99.90;;;;;;4786054;30;20204;-77
2023/09/16 05:55:30;;;;;;;9.80;4.30;;;11.50;99.90;;;;;;4786046;30;20301;-76
2023/09/16 05:57:58;;;;;;;7.30;3.77;;;11.60;99.90;;;;;;4786669;30;20233;-76
2023/09/16 06:00:26;;;;;;;9.77;4.10;;;11.70;99.90;;;;;;4786230;30;20212;-77
2023/09/16 06:02:54;;;;;;;8.90;3.90;;;11.70;99.90;;;;;;4786751;30;20684;-77
2023/09/16 06:05:22;;;;;;;6.47;4.13;;;11.70;99.90;;;;;;4786645;30;20213;-78
2023/09/16 06:07:50;;;;;;;9.60;4.20;;;11.80;99.90;;;;;;4785906;30;20214;-76
2023/09/16 06:10:17;;;;;;;7.37;3.77;;;11.90;99.90;;;;;;4786228;30;20204;-80
2023/09/16 06:12:46;;;;;;;6.77;4.20;;;12.10;99.90;;;;;;4785835;29;20214;-78
2023/09/16 06:15:15;;;;;;;9.80;3.83;;;12.30;99.90;;;;;;4788840;30;20303;-77
2023/09/16 06:17:42;;;;;;;5.93;3.67;;;12.40;99.90;;;;;;4789854;30;20257;-77
2023/09/16 06:20:10;;;;;;;8.00;3.90;;;12.40;99.90;;;;;;4788942;30;20253;-77
2023/09/16 06:22:37;;;;;;;5.77;3.53;;;12.60;99.90;;;;;;4790101;30;20231;-77
2023/09/16 06:25:05;;;;;;;6.50;3.73;;;12.70;99.90;;;;;;4789510;30;20204;-77
2023/09/16 06:27:33;;;;;;;5.73;3.47;;;12.80;99.90;;;;;;4789605;30;20283;-77
2023/09/16 06:30:01;;;;;;;6.50;3.67;;;13.00;99.90;;;;;;4789471;30;20204;-77
2023/09/16 06:32:29;;;;;;;9.93;4.30;;;13.10;99.90;;;;;;4789634;30;20224;-77
2023/09/16 06:34:56;;;;;;;10.90;4.10;;;13.30;99.90;;;;;;4789558;30;20212;-77
2023/09/16 06:37:24;;;;;;;6.67;3.80;;;13.30;99.90;;;;;;4788848;30;20245;-76
2023/09/16 06:39:51;;;;;;;7.77;3.77;;;13.40;99.90;;;;;;4789169;30;20209;-77
2023/09/16 06:42:26;;;;;;;6.40;3.77;;;13.40;99.90;;;;;;4789853;30;20720;-76
2023/09/16 06:44:59;;;;;;;9.87;3.90;;;13.50;99.90;;;;;;4789411;30;20264;-76
2023/09/16 06:47:27;;;;;;;10.40;3.60;;;13.60;99.90;;;;;;4789567;30;20204;-77
2023/09/16 06:49:59;;;;;;;7.40;3.73;;;13.80;99.90;;;;;;4789211;30;20205;-77
2023/09/16 06:52:27;;;;;;;6.47;3.30;;;13.90;99.90;;;;;;4789057;30;20239;-76
2023/09/16 06:54:55;;;;;;;6.47;3.50;;;14.10;99.90;;;;;;4788720;30;20657;-77
2023/09/16 06:57:23;;;;;;;5.33;3.23;;;14.10;99.90;;;;;;4787465;30;20206;-75
2023/09/16 07:00:08;;;;;;;8.20;3.30;;;14.30;99.90;;;;;;4788131;30;20208;-79
2023/09/16 07:02:36;;;;;;;6.57;3.20;;;14.40;99.90;;;;;;4787585;30;20223;-78
2023/09/16 07:05:04;;;;;;;6.03;3.40;;;14.50;99.90;;;;;;4789462;30;20203;-77
2023/09/16 07:07:31;;;;;;;6.33;3.50;;;14.70;99.90;;;;;;4788606;30;20249;-77
2023/09/16 07:09:59;;;;;;;7.20;3.97;;;14.70;99.90;;;;;;4788625;30;20265;-77
2023/09/16 07:12:27;;;;;;;8.23;3.63;;;14.80;99.90;;;;;;4788535;30;20236;-77
2023/09/16 07:14:55;;;;;;;5.83;3.27;;;14.90;99.90;;;;;;4789154;30;20210;-77
2023/09/16 07:17:22;;;;;;;6.53;3.20;;;15.10;99.90;;;;;;4788024;30;20283;-76
2023/09/16 07:19:51;;;;;;;5.67;3.20;;;15.20;99.90;;;;;;4788480;30;20196;-78
2023/09/16 07:22:20;;;;;;;6.70;3.30;;;15.30;99.90;;;;;;4787921;30;20242;-75
2023/09/16 07:24:50;;;;;;;5.63;3.47;;;15.30;99.90;;;;;;4787030;29;20206;-78
2023/09/16 07:27:18;;;;;;;6.73;3.37;;;15.40;99.90;;;;;;4788258;30;20212;-78
2023/09/16 07:29:46;;;;;;;5.83;3.20;;;15.50;99.90;;;;;;4788190;30;20201;-80
2023/09/16 07:32:13;;;;;;;5.73;3.40;;;15.60;99.90;;;;;;4788951;30;20283;-78
2023/09/16 07:34:41;;;;;;;7.00;3.00;;;15.70;99.90;;;;;;4788683;30;20283;-79
2023/09/16 07:37:08;;;;;;;6.10;3.43;;;15.80;99.90;;;;;;4788888;30;20731;-79
2023/09/16 07:39:36;;;;;;;6.83;3.50;;;15.90;99.90;;;;;;4787671;30;20229;-77
2023/09/16 07:42:04;;;;;;;7.10;3.20;;;16.00;99.90;;;;;;4788488;30;20228;-77
2023/09/16 07:44:32;;;;;;;8.17;3.33;;;16.10;99.90;;;;;;4787822;30;20204;-79
2023/09/16 07:47:00;;;;;;;5.93;3.33;;;16.30;99.90;;;;;;4787687;30;20207;-79
2023/09/16 07:49:28;;;;;;;6.33;3.40;;;16.30;99.90;;;;;;4787791;30;20232;-76
2023/09/16 07:51:56;;;;;;;7.80;3.47;;;16.40;99.90;;;;;;4787952;30;20272;-76
2023/09/16 07:54:26;;;;;;;4.17;2.73;;;16.50;99.90;;;;;;4787960;30;20291;-77
2023/09/16 07:56:53;;;;;;;5.77;3.10;;;16.70;99.90;;;;;;4788424;30;20562;-79
2023/09/16 07:59:21;;;;;;;5.80;3.20;;;16.70;99.90;;;;;;4786240;30;20205;-76
2023/09/16 08:01:49;;;;;;;5.73;2.90;;;16.80;99.90;;;;;;4787278;30;20223;-78
2023/09/16 08:04:17;;;;;;;5.97;3.00;;;17.00;99.90;;;;;;4787369;30;20279;-75
2023/09/16 08:06:46;;;;;;;4.43;2.70;;;17.20;99.90;;;;;;4785936;30;20240;-77
2023/09/16 08:09:18;;;;;;;6.53;3.10;;;17.20;99.90;;;;;;4787011;30;20661;-77
2023/09/16 08:11:45;;;;;;;10.17;3.20;;;17.40;99.90;;;;;;4787247;30;20241;-76
2023/09/16 08:14:13;;;;;;;5.37;2.77;;;17.50;99.90;;;;;;4785915;30;20228;-77
2023/09/16 08:16:41;;;;;;;5.57;3.10;;;17.70;99.90;;;;;;4786915;30;20232;-77
2023/09/16 08:19:09;;;;;;;5.87;2.70;;;17.90;99.90;;;;;;4787735;30;20679;-77
2023/09/16 08:21:36;;;;;;;4.30;2.60;;;18.70;99.90;;;;;;4787512;30;20244;-76
2023/09/16 08:24:04;;;;;;;4.67;2.57;;;19.50;99.90;;;;;;4787390;30;20200;-76
2023/09/16 08:26:31;;;;;;;5.07;2.53;;;20.40;99.90;;;;;;4787213;30;20204;-79
2023/09/16 08:28:59;;;;;;;4.30;2.50;;;20.90;99.90;;;;;;4787710;30;20242;-76
2023/09/16 08:31:28;;;;;;;7.07;2.47;;;21.10;99.90;;;;;;4787250;30;20208;-76
2023/09/16 08:34:03;;;;;;;4.17;2.30;;;21.50;99.90;;;;;;4786114;30;20729;-76
2023/09/16 08:36:30;;;;;;;4.37;2.20;;;21.70;99.90;;;;;;4786215;29;20227;-77
2023/09/16 08:38:59;;;;;;;3.53;2.30;;;21.90;99.90;;;;;;4786835;30;20261;-76
2023/09/16 08:41:33;;;;;;;3.53;2.27;;;22.10;99.90;;;;;;4786615;30;20231;-76
2023/09/16 08:44:05;;;;;;;3.93;2.30;;;22.20;99.90;;;;;;4787187;30;20261;-75
2023/09/16 08:46:39;;;;;;;4.10;2.30;;;22.40;99.90;;;;;;4787386;30;20222;-76
2023/09/16 08:49:09;;;;;;;5.27;2.50;;;22.60;99.90;;;;;;4785479;30;20204;-77
2023/09/16 08:51:42;;;;;;;4.80;2.50;;;22.90;99.90;;;;;;4785909;30;20216;-81
2023/09/16 08:54:10;;;;;;;6.77;2.60;;;23.00;99.90;;;;;;4786831;30;20204;-81
2023/09/16 08:56:39;;;;;;;7.93;2.60;;;22.90;99.90;;;;;;4786088;30;20224;-77
2023/09/16 08:59:07;;;;;;;5.23;2.53;;;23.10;99.90;;;;;;4785824;30;20254;-76
2023/09/16 09:01:34;;;;;;;4.57;2.30;;;23.00;99.90;;;;;;4787041;30;20208;-75
2023/09/16 09:04:03;;;;;;;4.87;2.43;;;23.20;99.90;;;;;;4785421;30;20207;-76
2023/09/16 09:06:35;;;;;;;5.33;2.30;;;23.30;99.90;;;;;;4786400;30;20232;-75
2023/09/16 09:09:07;;;;;;;4.53;2.33;;;23.70;99.90;;;;;;4786146;30;20208;-77
2023/09/16 09:11:35;;;;;;;6.73;2.37;;;23.80;99.90;;;;;;4786095;30;20232;-80
2023/09/16 09:14:03;;;;;;;4.80;2.40;;;24.00;99.90;;;;;;4785821;30;20299;-77
2023/09/16 09:16:33;;;;;;;4.07;2.50;;;24.20;99.90;;;;;;4786129;30;20539;-77
2023/09/16 09:19:02;;;;;;;4.40;2.50;;;24.40;99.90;;;;;;4786503;30;20196;-77
2023/09/16 09:21:30;;;;;;;6.88;2.40;;;24.40;99.90;;;;;;4786517;30;20716;-76
2023/09/16 09:24:01;;;;;;;4.88;2.20;;;24.70;99.90;;;;;;4786386;30;20587;-74
2023/09/16 09:26:31;;;;;;;3.33;2.10;;;24.80;99.90;;;;;;4785297;30;20565;-74
2023/09/16 09:29:09;;;;;;;5.05;2.40;;;24.80;99.90;;;;;;4785506;30;20204;-75
2023/09/16 09:31:38;;;;;;;2.90;2.00;;;25.10;99.90;;;;;;4785872;30;20700;-72
2023/09/16 09:34:25;;;;;;;3.58;2.30;;;25.40;99.90;;;;;;4786410;30;20206;-74
2023/09/16 09:37:01;;;;;;;4.32;2.30;;;25.40;99.90;;;;;;4785444;30;20568;-73
2023/09/16 09:39:39;;;;;;;7.47;2.45;;;25.60;99.90;;;;;;4785728;30;20283;-74
2023/09/16 09:42:10;;;;;;;3.00;2.13;;;26.00;99.90;;;;;;4786201;30;20215;-73
2023/09/16 09:44:45;;;;;;;4.93;2.13;;;26.10;99.90;;;;;;4785542;30;20196;-75
2023/09/16 09:47:15;;;;;;;6.32;2.60;;;26.60;99.90;;;;;;4785091;29;20200;-73
2023/09/16 09:49:46;;;;;;;5.10;2.22;;;26.90;99.90;;;;;;4789333;30;20204;-75
2023/09/16 09:52:22;;;;;;;3.05;2.15;;;26.80;99.90;;;;;;4788766;30;20219;-74
2023/09/16 09:54:53;;;;;;;7.07;2.60;;;26.80;99.50;;;;;;4789292;30;20209;-76
2023/09/16 09:57:26;;;;;;;5.45;2.78;;;26.90;98.40;;;;;;4789460;30;20200;-74
2023/09/16 09:59:55;;;;;;;3.80;2.30;;;27.20;98.30;;;;;;4788450;30;20673;-75
2023/09/16 10:02:25;;;;;;;6.15;2.40;;;27.30;97.60;;;;;;4789684;30;20235;-74
2023/09/16 10:05:01;;;;;;;3.22;2.10;;;27.30;96.70;;;;;;4789073;30;20253;-75
2023/09/16 10:07:31;;;;;;;3.65;2.20;;;27.10;96.70;;;;;;4789230;30;20601;-75
2023/09/16 10:09:59;;;;;;;4.13;2.20;;;27.70;96.80;;;;;;4789106;30;20233;-75
2023/09/16 10:12:29;;;;;;;8.30;2.33;;;27.80;95.80;;;;;;4788876;30;20351;-73
2023/09/16 10:14:57;;;;;;;3.47;2.22;;;28.20;95.10;;;;;;4788240;30;20200;-74
2023/09/16 10:17:24;;;;;;;5.10;2.30;;;28.50;94.00;;;;;;4789717;30;20539;-72
2023/09/16 10:19:52;;;;;;;6.18;2.25;;;28.80;93.30;;;;;;4787990;30;20208;-74
2023/09/16 10:22:19;;;;;;;3.08;2.00;;;28.50;91.80;;;;;;4788056;30;20236;-75
2023/09/16 10:24:47;;;;;;;5.53;2.35;;;28.30;91.70;;;;;;4789131;30;20204;-73
2023/09/16 10:27:19;;;;;;;3.67;2.20;;;28.30;91.80;;;;;;4788172;30;20200;-74
2023/09/16 10:29:48;;;;;;;3.45;2.30;;;28.60;91.50;;;;;;4788920;30;20256;-75
2023/09/16 10:32:16;;;;;;;3.17;2.30;;;28.90;90.70;;;;;;4788871;30;20299;-73
2023/09/16 10:34:47;;;;;;;4.35;2.20;;;29.00;90.30;;;;;;4788302;30;20196;-75
2023/09/16 10:37:17;;;;;;;6.03;2.28;;;29.20;90.60;;;;;;4787822;30;20605;-76
2023/09/16 10:39:46;;;;;;;5.30;2.38;;;29.10;89.10;;;;;;4788047;30;20200;-84
2023/09/16 10:42:19;;;;;;;4.25;2.30;;;29.00;88.10;;;;;;4788265;30;20289;-82
2023/09/16 10:44:47;;;;;;;3.38;2.20;;;28.80;87.70;;;;;;4788528;30;20204;-80
2023/09/16 10:47:17;;;;;;;4.53;2.33;;;28.60;86.70;;;;;;4788687;30;20230;-74
2023/09/16 10:49:45;;;;;;;5.13;2.50;;;28.60;86.90;;;;;;4788373;30;20272;-75
2023/09/16 10:52:17;;;;;;;4.40;2.20;;;28.50;86.30;;;;;;4788422;30;20273;-75
2023/09/16 10:55:11;;;;;;;4.18;2.30;;;29.10;86.90;;;;;;4788765;30;20210;-79
2023/09/16 10:58:03;;;;;;;3.75;2.22;;;29.40;84.60;;;;;;4787429;29;20240;-76
2023/09/16 11:00:44;;;;;;;3.22;2.13;;;29.90;85.50;;;;;;4767797;30;20215;-77
2023/09/16 11:03:16;;;;;;;6.57;2.10;;;30.40;83.00;;;;;;4767218;30;20359;-76
2023/09/16 11:05:47;;;;;;;4.18;2.20;;;30.50;82.10;;;;;;4767499;30;20239;-75
2023/09/16 11:08:15;;;;;;;5.13;2.38;;;30.90;80.90;;;;;;4767439;30;20197;-75
2023/09/16 11:10:49;;;;;;;5.75;2.60;;;31.00;78.80;;;;;;4764009;30;20240;-83
2023/09/16 11:19:49;;;;;;;3.72;1.98;;;30.60;78.40;;;;;;4671052;30;20203;-81
2023/09/16 11:22:25;;;;;;;5.35;2.30;;;31.40;76.30;;;;;;4696112;30;20736;-80
2023/09/16 11:25:00;;;;;;;5.45;2.03;;;31.80;74.40;;;;;;4681752;30;20232;-80
2023/09/16 11:27:33;;;;;;;3.35;2.15;;;31.60;72.90;;;;;;4696486;30;20203;-80
2023/09/16 11:30:23;;;;;;;3.15;2.13;;;31.10;73.80;;;;;;4697406;30;20290;-80
2023/09/16 11:33:39;;;;;;;3.78;2.20;;;32.00;72.40;;;;;;4697491;30;20278;-79
2023/09/16 11:40:07;;;;;;;5.82;2.10;;;32.80;68.90;;;;;;4762867;30;20243;-79
2023/09/16 11:44:07;;;;;;;3.05;2.10;;;33.70;67.10;;;;;;4656190;30;20283;-80
2023/09/16 12:00:45;;;;;;;2.70;2.00;;;35.20;59.20;;;;;;4883592;24;20252;-79
2023/09/16 12:03:37;;;;;;;3.75;2.00;;;35.40;58.30;;;;;;4770514;30;20235;-79
2023/09/16 12:06:25;;;;;;;4.03;1.92;;;35.10;58.50;;;;;;4785196;30;20252;-85
2023/09/16 12:09:02;;;;;;;3.13;2.10;;;35.60;58.90;;;;;;4780342;30;20208;-87
2023/09/16 12:11:49;;;;;;;4.60;2.00;;;35.80;57.40;;;;;;4785253;29;20231;-80
2023/09/16 12:14:21;;;;;;;2.53;2.03;;;35.40;57.50;;;;;;4788366;29;20208;-81
2023/09/16 12:16:58;;;;;;;4.05;2.05;;;35.00;57.20;;;;;;4806283;29;20211;-87
2023/09/16 12:19:58;;;;;;;4.40;2.10;;;34.70;57.70;;;;;;4804876;29;20212;-79
2023/09/16 12:22:31;;;;;;;4.47;1.88;;;35.00;57.40;;;;;;4772841;29;20326;-77
2023/09/16 13:20:57;;;;;;;;;;;;;;;;;;;;;
2023/09/16 14:45:21;;;;;;;5.50;2.47;;;23.70;88.20;;;;;;4680773;30;20207;-83
2023/09/16 15:44:48;;;;;;;6.93;2.90;;;22.40;92.70;;;;;;5215514;24;20236;-82
2023/09/16 15:47:15;;;;;;;6.73;2.57;;;22.40;93.50;;;;;;4769061;30;20243;-72
2023/09/16 15:50:07;;;;;;;7.70;2.80;;;22.30;94.10;;;;;;4769657;30;20200;-81
2023/09/16 15:52:40;;;;;;;4.80;2.53;;;22.10;95.90;;;;;;4753264;30;20211;-81
2023/09/16 15:55:16;;;;;;;5.60;2.77;;;21.90;95.40;;;;;;4751734;30;20201;-80
2023/09/16 15:57:52;;;;;;;5.17;2.63;;;21.80;96.50;;;;;;4753127;30;20213;-82
2023/09/16 16:00:25;;;;;;;3.93;2.70;;;21.70;96.70;;;;;;4751279;30;20220;-82
2023/09/16 16:03:07;;;;;;;5.97;2.70;;;21.50;96.50;;;;;;4749403;30;20294;-84
2023/09/16 16:05:38;;;;;;;6.23;2.40;;;21.40;96.70;;;;;;4751462;30;20757;-78
2023/09/16 16:08:42;;;;;;;;;;;;;;;;;;;;;
2023/09/16 16:11:35;;;;;;;4.63;2.50;;;21.30;97.90;;;;;;4770205;30;20687;-82
2023/09/16 16:14:48;;;;;;;5.17;2.50;;;21.10;97.50;;;;;;4706555;30;20217;-86
2023/09/16 16:17:27;;;;;;;6.23;2.50;;;21.00;98.70;;;;;;4767800;30;20273;-81
2023/09/16 16:20:21;;;;;;;3.13;2.17;;;21.00;98.60;;;;;;4749574;30;20213;-78
2023/09/16 16:23:00;;;;;;;3.87;2.40;;;20.90;99.20;;;;;;4736209;30;20245;-90
2023/09/16 16:25:43;;;;;;;4.40;2.43;;;20.70;99.40;;;;;;4735554;30;20205;-89
2023/09/16 16:28:27;;;;;;;6.63;2.40;;;20.70;99.90;;;;;;4734395;30;20217;-82
2023/09/16 16:31:14;;;;;;;3.73;2.60;;;20.70;99.90;;;;;;4748742;30;20209;-81
2023/09/16 16:33:58;;;;;;;4.00;2.60;;;20.60;99.90;;;;;;4722765;30;20212;-88
2023/09/16 16:36:29;;;;;;;3.67;2.50;;;20.60;99.90;;;;;;4749676;30;20222;-87
2023/09/16 16:38:59;;;;;;;5.60;3.20;;;20.50;99.90;;;;;;4749857;30;20217;-80
2023/09/16 16:41:33;;;;;;;4.83;2.70;;;20.40;99.90;;;;;;4749304;30;20685;-80
2023/09/16 16:44:04;;;;;;;8.10;3.10;;;20.30;99.90;;;;;;4748670;30;20721;-78
2023/09/16 16:46:38;;;;;;;4.03;2.80;;;20.30;99.90;;;;;;4748925;30;20233;-80